sensor_id;sensor_type;location;lat;lon;timestamp;pressure;altitude;pressure_sealevel;temperature;humidity
9110;BME280;4590;51.462;6.692;2022-12-01T00:00:44;102381.81;;;7.92;73.53
9110;BME280;4590;51.462;6.692;2022-12-01T00:03:10;102389.94;;;7.87;73.93
9110;BME280;4590;51.462;6.692;2022-12-01T00:05:35;102381.41;;;7.84;74.07
9110;BME280;4590;51.462;6.692;2022-12-01T00:08:01;102387.47;;;7.86;73.94
9110;BME280;4590;51.462;6.692;2022-12-01T00:10:27;102385.97;;;7.78;74.44
9110;BME280;4590;51.462;6.692;2022-12-01T00:12:58;102376.19;;;7.82;74.16
9110;BME280;4590;51.462;6.692;2022-12-01T00:15:32;102378.91;;;7.82;74.16
9110;BME280;4590;51.462;6.692;2022-12-01T00:17:59;102376.75;;;7.84;73.67
9110;BME280;4590;51.462;6.692;2022-12-01T00:20:24;102371.19;;;7.79;74.43
9110;BME280;4590;51.462;6.692;2022-12-01T00:22:50;102385.47;;;7.81;74.16
9110;BME280;4590;51.462;6.692;2022-12-01T00:25:17;102381.66;;;7.82;73.89
9110;BME280;4590;51.462;6.692;2022-12-01T00:27:46;102379.50;;;7.84;74.38
9110;BME280;4590;51.462;6.692;2022-12-01T00:30:12;102374.59;;;7.86;74.41
9110;BME280;4590;51.462;6.692;2022-12-01T00:32:37;102381.41;;;7.84;73.93
9110;BME280;4590;51.462;6.692;2022-12-01T00:35:03;102378.19;;;7.87;74.14
9110;BME280;4590;51.462;6.692;2022-12-01T00:37:30;102380.59;;;7.83;74.08
9110;BME280;4590;51.462;6.692;2022-12-01T00:39:56;102399.06;;;7.76;74.48
9110;BME280;4590;51.462;6.692;2022-12-01T00:42:22;102375.59;;;7.80;74.36
9110;BME280;4590;51.462;6.692;2022-12-01T00:44:47;102377.97;;;7.77;74.09
9110;BME280;4590;51.462;6.692;2022-12-01T00:47:13;102371.44;;;7.78;74.41
9110;BME280;4590;51.462;6.692;2022-12-01T00:49:38;102379.66;;;7.78;74.30
9110;BME280;4590;51.462;6.692;2022-12-01T00:52:03;102381.66;;;7.82;74.37
9110;BME280;4590;51.462;6.692;2022-12-01T00:54:29;102371.19;;;7.79;74.81
9110;BME280;4590;51.462;6.692;2022-12-01T00:56:57;102378.66;;;7.84;74.46
9110;BME280;4590;51.462;6.692;2022-12-01T00:59:22;102385.69;;;7.63;74.24
9110;BME280;4590;51.462;6.692;2022-12-01T01:01:48;102373.69;;;7.81;74.61
9110;BME280;4590;51.462;6.692;2022-12-01T01:04:13;102387.13;;;7.82;74.24
9110;BME280;4590;51.462;6.692;2022-12-01T01:06:38;102383.31;;;7.83;73.81
9110;BME280;4590;51.462;6.692;2022-12-01T01:09:04;102380.00;;;7.81;74.34
9110;BME280;4590;51.462;6.692;2022-12-01T01:11:29;102384.06;;;7.79;74.50
9110;BME280;4590;51.462;6.692;2022-12-01T01:13:54;102392.41;;;7.72;74.85
9110;BME280;4590;51.462;6.692;2022-12-01T01:16:20;102396.25;;;7.71;74.99
9110;BME280;4590;51.462;6.692;2022-12-01T01:18:46;102396.34;;;7.76;74.60
9110;BME280;4590;51.462;6.692;2022-12-01T01:21:14;102396.94;;;7.78;74.27
9110;BME280;4590;51.462;6.692;2022-12-01T01:23:40;102396.94;;;7.78;74.27
9110;BME280;4590;51.462;6.692;2022-12-01T01:26:09;102398.34;;;7.81;74.23
9110;BME280;4590;51.462;6.692;2022-12-01T01:28:34;102401.91;;;7.81;74.11
9110;BME280;4590;51.462;6.692;2022-12-01T01:31:04;102400.75;;;7.77;74.39
9110;BME280;4590;51.462;6.692;2022-12-01T01:33:30;102408.47;;;7.80;74.45
9110;BME280;4590;51.462;6.692;2022-12-01T01:35:57;102401.22;;;7.74;74.28
9110;BME280;4590;51.462;6.692;2022-12-01T01:38:24;102405.88;;;7.73;74.33
9110;BME280;4590;51.462;6.692;2022-12-01T01:40:49;102411.88;;;7.70;74.66
9110;BME280;4590;51.462;6.692;2022-12-01T01:43:16;102407.84;;;7.61;75.14
9110;BME280;4590;51.462;6.692;2022-12-01T01:45:42;102412.84;;;7.64;74.82
9110;BME280;4590;51.462;6.692;2022-12-01T01:48:09;102412.84;;;7.64;75.06
9110;BME280;4590;51.462;6.692;2022-12-01T01:50:35;102411.03;;;7.70;74.70
9110;BME280;4590;51.462;6.692;2022-12-01T01:53:07;102408.78;;;7.67;75.00
9110;BME280;4590;51.462;6.692;2022-12-01T01:55:35;102410.53;;;7.73;74.72
9110;BME280;4590;51.462;6.692;2022-12-01T01:58:00;102414.16;;;7.62;75.79
9110;BME280;4590;51.462;6.692;2022-12-01T02:00:26;102407.38;;;7.64;75.13
9110;BME280;4590;51.462;6.692;2022-12-01T02:02:52;102413.56;;;7.60;75.31
9110;BME280;4590;51.462;6.692;2022-12-01T02:05:23;102409.88;;;7.66;75.22
9110;BME280;4590;51.462;6.692;2022-12-01T02:07:50;102409.69;;;7.72;74.74
9110;BME280;4590;51.462;6.692;2022-12-01T02:10:17;102413.84;;;7.75;75.18
9110;BME280;4590;51.462;6.692;2022-12-01T02:13:07;102412.72;;;7.71;74.86
9110;BME280;4590;51.462;6.692;2022-12-01T02:21:28;102411.28;;;7.68;75.19
9110;BME280;4590;51.462;6.692;2022-12-01T02:27:32;102409.53;;;7.62;75.78
9110;BME280;4590;51.462;6.692;2022-12-01T02:30:10;102412.75;;;7.59;74.64
9110;BME280;4590;51.462;6.692;2022-12-01T02:33:07;102416.53;;;7.70;75.42
9110;BME280;4590;51.462;6.692;2022-12-01T02:35:47;102412.72;;;7.71;75.23
9110;BME280;4590;51.462;6.692;2022-12-01T02:40:54;102404.22;;;7.72;74.86
9110;BME280;4590;51.462;6.692;2022-12-01T02:43:26;102403.13;;;7.73;74.65
9110;BME280;4590;51.462;6.692;2022-12-01T02:46:04;102405.03;;;7.73;74.90
9110;BME280;4590;51.462;6.692;2022-12-01T02:48:34;102403.97;;;7.74;75.02
9110;BME280;4590;51.462;6.692;2022-12-01T02:51:06;102412.19;;;7.74;74.58
9110;BME280;4590;51.462;6.692;2022-12-01T02:53:32;102399.75;;;7.66;74.74
9110;BME280;4590;51.462;6.692;2022-12-01T02:55:58;102402.88;;;7.75;74.65
9110;BME280;4590;51.462;6.692;2022-12-01T02:58:24;102412.84;;;7.64;75.07
9110;BME280;4590;51.462;6.692;2022-12-01T03:03:40;102410.91;;;7.48;74.73
9110;BME280;4590;51.462;6.692;2022-12-01T03:09:07;102401.78;;;7.59;74.06
9110;BME280;4590;51.462;6.692;2022-12-01T03:11:58;102407.97;;;7.66;74.29
9110;BME280;4590;51.462;6.692;2022-12-01T03:14:36;102409.34;;;7.52;74.71
9110;BME280;4590;51.462;6.692;2022-12-01T03:17:07;102402.47;;;7.66;74.05
9110;BME280;4590;51.462;6.692;2022-12-01T03:19:36;102400.81;;;7.65;74.43
9110;BME280;4590;51.462;6.692;2022-12-01T03:22:10;102414.28;;;7.67;73.97
9110;BME280;4590;51.462;6.692;2022-12-01T03:24:39;102410.53;;;7.73;73.64
9110;BME280;4590;51.462;6.692;2022-12-01T03:27:10;102405.28;;;7.71;73.93
9110;BME280;4590;51.462;6.692;2022-12-01T03:29:41;102408.97;;;7.77;73.87
9110;BME280;4590;51.462;6.692;2022-12-01T03:32:17;102406.13;;;7.72;73.44
9110;BME280;4590;51.462;6.692;2022-12-01T03:34:55;102412.94;;;7.69;73.16
9110;BME280;4590;51.462;6.692;2022-12-01T03:37:26;102416.59;;;7.75;73.34
9110;BME280;4590;51.462;6.692;2022-12-01T03:39:55;102412.59;;;7.66;73.28
9110;BME280;4590;51.462;6.692;2022-12-01T03:42:35;102418.72;;;7.56;73.06
9110;BME280;4590;51.462;6.692;2022-12-01T03:45:10;102420.53;;;7.51;73.67
9110;BME280;4590;51.462;6.692;2022-12-01T03:47:39;102418.16;;;7.54;73.51
9110;BME280;4590;51.462;6.692;2022-12-01T03:50:07;102416.81;;;7.57;73.41
9110;BME280;4590;51.462;6.692;2022-12-01T03:58:03;102419.06;;;7.60;73.36
9110;BME280;4590;51.462;6.692;2022-12-01T04:00:30;102409.28;;;7.64;73.99
9110;BME280;4590;51.462;6.692;2022-12-01T04:02:58;102412.84;;;7.64;73.27
9110;BME280;4590;51.462;6.692;2022-12-01T04:05:25;102410.44;;;7.68;73.38
9110;BME280;4590;51.462;6.692;2022-12-01T04:07:50;102418.66;;;7.68;72.88
9110;BME280;4590;51.462;6.692;2022-12-01T04:10:16;102423.31;;;7.67;73.04
9110;BME280;4590;51.462;6.692;2022-12-01T04:12:41;102414.75;;;7.64;73.45
9110;BME280;4590;51.462;6.692;2022-12-01T04:15:09;102420.34;;;7.69;73.01
9110;BME280;4590;51.462;6.692;2022-12-01T04:17:37;102430.34;;;7.63;73.49
9110;BME280;4590;51.462;6.692;2022-12-01T04:20:03;102428.44;;;7.64;73.49
9110;BME280;4590;51.462;6.692;2022-12-01T04:22:31;102417.00;;;7.67;72.93
9110;BME280;4590;51.462;6.692;2022-12-01T04:24:56;102416.53;;;7.70;72.96
9110;BME280;4590;51.462;6.692;2022-12-01T04:27:21;102428.03;;;7.55;73.34
9110;BME280;4590;51.462;6.692;2022-12-01T04:29:46;102429.41;;;7.58;73.68
9110;BME280;4590;51.462;6.692;2022-12-01T04:32:12;102419.47;;;7.52;73.62
9110;BME280;4590;51.462;6.692;2022-12-01T04:34:37;102422.03;;;7.58;73.47
9110;BME280;4590;51.462;6.692;2022-12-01T04:37:06;102421.19;;;7.58;73.63
9110;BME280;4590;51.462;6.692;2022-12-01T04:39:32;102428.28;;;7.54;74.10
9110;BME280;4590;51.462;6.692;2022-12-01T04:41:58;102431.00;;;7.54;73.42
9110;BME280;4590;51.462;6.692;2022-12-01T04:44:23;102422.03;;;7.58;73.43
9110;BME280;4590;51.462;6.692;2022-12-01T04:46:50;102421.44;;;7.56;73.34
9110;BME280;4590;51.462;6.692;2022-12-01T04:49:16;102414.81;;;7.52;73.68
9110;BME280;4590;51.462;6.692;2022-12-01T04:51:41;102415.13;;;7.56;73.65
9110;BME280;4590;51.462;6.692;2022-12-01T04:54:06;102404.75;;;7.58;73.52
9110;BME280;4590;51.462;6.692;2022-12-01T04:56:32;102410.84;;;7.60;73.55
9110;BME280;4590;51.462;6.692;2022-12-01T04:58:57;102408.09;;;7.60;73.95
9110;BME280;4590;51.462;6.692;2022-12-01T05:01:23;102401.78;;;7.59;73.40
9110;BME280;4590;51.462;6.692;2022-12-01T05:03:49;102413.34;;;7.61;73.56
9110;BME280;4590;51.462;6.692;2022-12-01T05:06:20;102409.28;;;7.64;73.53
9110;BME280;4590;51.462;6.692;2022-12-01T05:08:46;102401.28;;;7.62;73.43
9110;BME280;4590;51.462;6.692;2022-12-01T05:11:13;102405.00;;;7.56;73.25
9110;BME280;4590;51.462;6.692;2022-12-01T05:13:40;102401.78;;;7.59;73.38
9110;BME280;4590;51.462;6.692;2022-12-01T05:16:10;102405.94;;;7.62;73.41
9110;BME280;4590;51.462;6.692;2022-12-01T05:18:35;102405.94;;;7.62;73.03
9110;BME280;4590;51.462;6.692;2022-12-01T05:21:01;102410.94;;;7.65;73.39
9110;BME280;4590;51.462;6.692;2022-12-01T05:23:30;102408.44;;;7.63;73.48
9110;BME280;4590;51.462;6.692;2022-12-01T05:25:56;102418.31;;;7.64;73.60
9110;BME280;4590;51.462;6.692;2022-12-01T05:28:23;102425.59;;;7.59;73.23
9110;BME280;4590;51.462;6.692;2022-12-01T05:30:50;102420.88;;;7.54;73.35
9110;BME280;4590;51.462;6.692;2022-12-01T05:33:16;102418.47;;;7.58;73.06
9110;BME280;4590;51.462;6.692;2022-12-01T05:35:41;102414.06;;;7.57;73.26
9110;BME280;4590;51.462;6.692;2022-12-01T05:38:07;102416.81;;;7.57;72.94
9110;BME280;4590;51.462;6.692;2022-12-01T05:40:33;102417.63;;;7.57;73.39
9110;BME280;4590;51.462;6.692;2022-12-01T05:42:59;102420.38;;;7.57;73.32
9110;BME280;4590;51.462;6.692;2022-12-01T05:45:24;102417.31;;;7.54;73.06
9110;BME280;4590;51.462;6.692;2022-12-01T05:47:56;102429.59;;;7.51;72.66
9110;BME280;4590;51.462;6.692;2022-12-01T05:50:22;102433.16;;;7.52;72.81
9110;BME280;4590;51.462;6.692;2022-12-01T05:52:48;102436.13;;;7.50;72.82
9110;BME280;4590;51.462;6.692;2022-12-01T05:55:13;102430.41;;;7.52;72.82
9110;BME280;4590;51.462;6.692;2022-12-01T05:57:38;102433.50;;;7.55;72.81
9110;BME280;4590;51.462;6.692;2022-12-01T06:00:05;102432.09;;;7.53;73.03
9110;BME280;4590;51.462;6.692;2022-12-01T06:02:30;102433.22;;;7.57;72.83
9110;BME280;4590;51.462;6.692;2022-12-01T06:04:56;102432.69;;;7.55;72.94
9110;BME280;4590;51.462;6.692;2022-12-01T06:07:21;102433.00;;;7.58;72.81
9110;BME280;4590;51.462;6.692;2022-12-01T06:09:49;102432.41;;;7.56;72.54
9110;BME280;4590;51.462;6.692;2022-12-01T06:12:14;102432.16;;;7.58;72.75
9110;BME280;4590;51.462;6.692;2022-12-01T06:14:39;102430.78;;;7.55;72.73
9110;BME280;4590;51.462;6.692;2022-12-01T06:17:05;102438.03;;;7.50;73.11
9110;BME280;4590;51.462;6.692;2022-12-01T06:19:30;102438.53;;;7.47;73.08
9110;BME280;4590;51.462;6.692;2022-12-01T06:21:56;102444.50;;;7.44;73.14
9110;BME280;4590;51.462;6.692;2022-12-01T06:24:21;102442.94;;;7.48;73.21
9110;BME280;4590;51.462;6.692;2022-12-01T06:26:47;102437.94;;;7.45;73.56
9110;BME280;4590;51.462;6.692;2022-12-01T06:29:12;102439.94;;;7.49;72.97
9110;BME280;4590;51.462;6.692;2022-12-01T06:31:38;102447.34;;;7.49;73.51
9110;BME280;4590;51.462;6.692;2022-12-01T06:34:03;102442.22;;;7.52;72.94
9110;BME280;4590;51.462;6.692;2022-12-01T06:36:28;102440.38;;;7.58;73.34
9110;BME280;4590;51.462;6.692;2022-12-01T06:38:53;102432.25;;;7.63;73.30
9110;BME280;4590;51.462;6.692;2022-12-01T06:41:19;102437.25;;;7.66;72.70
9110;BME280;4590;51.462;6.692;2022-12-01T06:43:44;102433.94;;;7.64;72.63
9110;BME280;4590;51.462;6.692;2022-12-01T06:46:09;102445.38;;;7.61;72.75
9110;BME280;4590;51.462;6.692;2022-12-01T06:48:34;102446.38;;;7.55;73.10
9110;BME280;4590;51.462;6.692;2022-12-01T06:51:00;102450.25;;;7.59;73.32
9110;BME280;4590;51.462;6.692;2022-12-01T06:53:27;102449.28;;;7.65;72.71
9110;BME280;4590;51.462;6.692;2022-12-01T06:55:53;102452.22;;;7.47;73.22
9110;BME280;4590;51.462;6.692;2022-12-01T06:58:18;102464.78;;;7.59;72.98
9110;BME280;4590;51.462;6.692;2022-12-01T07:00:43;102458.00;;;7.62;73.21
9110;BME280;4590;51.462;6.692;2022-12-01T07:03:09;102461.56;;;7.62;72.68
9110;BME280;4590;51.462;6.692;2022-12-01T07:05:35;102457.16;;;7.61;72.72
9110;BME280;4590;51.462;6.692;2022-12-01T07:08:00;102460.16;;;7.60;72.91
9110;BME280;4590;51.462;6.692;2022-12-01T07:10:26;102463.38;;;7.57;73.20
9110;BME280;4590;51.462;6.692;2022-12-01T07:12:52;102465.38;;;7.61;73.29
9110;BME280;4590;51.462;6.692;2022-12-01T07:15:19;102456.09;;;7.62;73.17
9110;BME280;4590;51.462;6.692;2022-12-01T07:17:44;102472.19;;;7.59;73.31
9110;BME280;4590;51.462;6.692;2022-12-01T07:20:10;102474.09;;;7.58;73.47
9110;BME280;4590;51.462;6.692;2022-12-01T07:22:35;102463.47;;;7.62;73.14
9110;BME280;4590;51.462;6.692;2022-12-01T07:25:01;102470.75;;;7.56;73.49
9110;BME280;4590;51.462;6.692;2022-12-01T07:27:30;102472.66;;;7.56;73.16
9110;BME280;4590;51.462;6.692;2022-12-01T07:29:55;102474.19;;;7.63;73.51
9110;BME280;4590;51.462;6.692;2022-12-01T07:32:21;102468.38;;;7.60;73.47
9110;BME280;4590;51.462;6.692;2022-12-01T07:34:46;102473.75;;;7.55;73.61
9110;BME280;4590;51.462;6.692;2022-12-01T07:37:11;102463.47;;;7.62;73.50
9110;BME280;4590;51.462;6.692;2022-12-01T07:39:36;102469.31;;;7.65;73.32
9110;BME280;4590;51.462;6.692;2022-12-01T07:42:02;102476.69;;;7.65;73.09
9110;BME280;4590;51.462;6.692;2022-12-01T07:44:27;102469.53;;;7.64;73.46
9110;BME280;4590;51.462;6.692;2022-12-01T07:46:53;102473.13;;;7.64;73.15
9110;BME280;4590;51.462;6.692;2022-12-01T07:49:18;102477.88;;;7.69;72.66
9110;BME280;4590;51.462;6.692;2022-12-01T07:51:44;102484.91;;;7.65;72.94
9110;BME280;4590;51.462;6.692;2022-12-01T07:54:09;102473.72;;;7.66;72.84
9110;BME280;4590;51.462;6.692;2022-12-01T07:56:35;102486.56;;;7.66;72.88
9110;BME280;4590;51.462;6.692;2022-12-01T07:59:01;102480.41;;;7.59;73.25
9110;BME280;4590;51.462;6.692;2022-12-01T08:01:26;102482.66;;;7.62;73.34
9110;BME280;4590;51.462;6.692;2022-12-01T08:03:54;102479.91;;;7.62;73.31
9110;BME280;4590;51.462;6.692;2022-12-01T08:06:21;102484.22;;;7.58;73.36
9110;BME280;4590;51.462;6.692;2022-12-01T08:08:46;102481.16;;;7.54;73.79
9110;BME280;4590;51.462;6.692;2022-12-01T08:11:18;102486.34;;;7.56;72.90
9110;BME280;4590;51.462;6.692;2022-12-01T08:13:44;102485.63;;;7.60;73.28
9110;BME280;4590;51.462;6.692;2022-12-01T08:16:11;102487.69;;;7.53;73.11
9110;BME280;4590;51.462;6.692;2022-12-01T08:18:38;102491.84;;;7.56;73.20
9110;BME280;4590;51.462;6.692;2022-12-01T08:21:05;102491.94;;;7.61;73.43
9110;BME280;4590;51.462;6.692;2022-12-01T08:23:31;102488.38;;;7.60;73.05
9110;BME280;4590;51.462;6.692;2022-12-01T08:26:05;102492.09;;;7.54;72.72
9110;BME280;4590;51.462;6.692;2022-12-01T08:28:30;102494.00;;;7.54;73.18
9110;BME280;4590;51.462;6.692;2022-12-01T08:30:56;102498.31;;;7.50;72.97
9110;BME280;4590;51.462;6.692;2022-12-01T08:33:21;102503.06;;;7.54;73.06
9110;BME280;4590;51.462;6.692;2022-12-01T08:35:47;102506.03;;;7.53;73.39
9110;BME280;4590;51.462;6.692;2022-12-01T08:38:12;102499.13;;;7.50;73.21
9110;BME280;4590;51.462;6.692;2022-12-01T08:40:37;102498.41;;;7.55;73.65
9110;BME280;4590;51.462;6.692;2022-12-01T08:43:03;102503.63;;;7.56;73.55
9110;BME280;4590;51.462;6.692;2022-12-01T08:45:28;102505.41;;;7.62;73.37
9110;BME280;4590;51.462;6.692;2022-12-01T08:47:53;102507.91;;;7.64;73.32
9110;BME280;4590;51.462;6.692;2022-12-01T08:50:23;102503.00;;;7.66;73.28
9110;BME280;4590;51.462;6.692;2022-12-01T08:52:49;102508.84;;;7.69;73.22
9110;BME280;4590;51.462;6.692;2022-12-01T08:55:14;102506.34;;;7.68;73.18
9110;BME280;4590;51.462;6.692;2022-12-01T08:57:39;102507.50;;;7.72;73.01
9110;BME280;4590;51.462;6.692;2022-12-01T09:00:05;102513.56;;;7.74;72.78
9110;BME280;4590;51.462;6.692;2022-12-01T09:02:30;102510.34;;;7.77;73.17
9110;BME280;4590;51.462;6.692;2022-12-01T09:04:56;102507.25;;;7.73;72.98
9110;BME280;4590;51.462;6.692;2022-12-01T09:07:21;102505.88;;;7.71;72.85
9110;BME280;4590;51.462;6.692;2022-12-01T09:09:46;102504.75;;;7.72;72.51
9110;BME280;4590;51.462;6.692;2022-12-01T09:12:12;102505.50;;;7.67;73.09
9110;BME280;4590;51.462;6.692;2022-12-01T09:14:39;102517.38;;;7.73;72.90
9110;BME280;4590;51.462;6.692;2022-12-01T09:17:07;102518.47;;;7.72;72.92
9110;BME280;4590;51.462;6.692;2022-12-01T09:19:33;102514.66;;;7.73;73.09
9110;BME280;4590;51.462;6.692;2022-12-01T09:21:58;102510.25;;;7.72;73.13
9110;BME280;4590;51.462;6.692;2022-12-01T09:24:24;102516.22;;;7.69;72.95
9110;BME280;4590;51.462;6.692;2022-12-01T09:26:49;102515.41;;;7.68;73.02
9110;BME280;4590;51.462;6.692;2022-12-01T09:29:18;102523.25;;;7.65;72.46
9110;BME280;4590;51.462;6.692;2022-12-01T09:31:43;102516.72;;;7.66;72.26
9110;BME280;4590;51.462;6.692;2022-12-01T09:34:12;102510.63;;;7.64;72.55
9110;BME280;4590;51.462;6.692;2022-12-01T09:36:37;102512.66;;;7.68;72.91
9110;BME280;4590;51.462;6.692;2022-12-01T09:39:05;102522.31;;;7.71;72.37
9110;BME280;4590;51.462;6.692;2022-12-01T09:41:39;102522.53;;;7.69;72.42
9110;BME280;4590;51.462;6.692;2022-12-01T09:46:48;102528.47;;;7.78;72.45
9110;BME280;4590;51.462;6.692;2022-12-01T09:52:21;102531.09;;;7.73;72.61
9110;BME280;4590;51.462;6.692;2022-12-01T09:54:47;102528.63;;;7.60;73.07
9110;BME280;4590;51.462;6.692;2022-12-01T09:57:16;102520.19;;;7.61;72.62
9110;BME280;4590;51.462;6.692;2022-12-01T09:59:42;102518.84;;;7.64;72.78
9110;BME280;4590;51.462;6.692;2022-12-01T10:02:34;102517.06;;;7.58;71.88
9110;BME280;4590;51.462;6.692;2022-12-01T10:05:04;102513.28;;;7.59;72.79
9110;BME280;4590;51.462;6.692;2022-12-01T10:07:41;102515.53;;;7.62;72.39
9110;BME280;4590;51.462;6.692;2022-12-01T10:10:14;102512.53;;;7.63;72.17
9110;BME280;4590;51.462;6.692;2022-12-01T10:12:44;102513.28;;;7.59;72.67
9110;BME280;4590;51.462;6.692;2022-12-01T10:18:22;102499.25;;;7.44;72.07
9110;BME280;4590;51.462;6.692;2022-12-01T10:21:01;102505.09;;;7.47;72.52
9110;BME280;4590;51.462;6.692;2022-12-01T10:23:43;102505.09;;;7.47;72.19
9110;BME280;4590;51.462;6.692;2022-12-01T10:29:33;102497.28;;;7.39;72.72
9110;BME280;4590;51.462;6.692;2022-12-01T10:32:19;102494.78;;;7.26;72.73
9110;BME280;4590;51.462;6.692;2022-12-01T10:34:48;102495.50;;;7.33;73.29
9110;BME280;4590;51.462;6.692;2022-12-01T10:37:19;102487.16;;;7.39;72.97
9110;BME280;4590;51.462;6.692;2022-12-01T10:39:47;102497.88;;;7.29;72.73
9110;BME280;4590;51.462;6.692;2022-12-01T10:42:34;102494.78;;;7.37;72.81
9110;BME280;4590;51.462;6.692;2022-12-01T10:45:05;102486.88;;;7.41;72.77
9110;BME280;4590;51.462;6.692;2022-12-01T10:47:30;102489.97;;;7.45;72.97
9110;BME280;4590;51.462;6.692;2022-12-01T10:49:56;102482.84;;;7.44;73.01
9110;BME280;4590;51.462;6.692;2022-12-01T10:52:36;102484.50;;;7.45;72.47
9110;BME280;4590;51.462;6.692;2022-12-01T10:55:05;102490.31;;;7.48;72.66
9110;BME280;4590;51.462;6.692;2022-12-01T10:57:48;102493.31;;;7.47;72.51
9110;BME280;4590;51.462;6.692;2022-12-01T11:00:21;102489.06;;;7.39;73.45
9110;BME280;4590;51.462;6.692;2022-12-01T11:02:46;102484.25;;;7.46;73.10
9110;BME280;4590;51.462;6.692;2022-12-01T11:05:27;102490.44;;;7.42;72.63
9110;BME280;4590;51.462;6.692;2022-12-01T11:07:53;102494.50;;;7.51;72.71
9110;BME280;4590;51.462;6.692;2022-12-01T11:10:29;102485.56;;;7.44;72.50
9110;BME280;4590;51.462;6.692;2022-12-01T11:13:18;102489.00;;;7.51;72.43
9110;BME280;4590;51.462;6.692;2022-12-01T11:16:04;102488.31;;;7.44;72.57
9110;BME280;4590;51.462;6.692;2022-12-01T11:23:34;102490.56;;;7.47;72.44
9110;BME280;4590;51.462;6.692;2022-12-01T11:26:10;102486.88;;;7.53;72.48
9110;BME280;4590;51.462;6.692;2022-12-01T11:28:41;102482.09;;;7.48;72.87
9110;BME280;4590;51.462;6.692;2022-12-01T11:31:08;102483.44;;;7.46;72.93
9110;BME280;4590;51.462;6.692;2022-12-01T11:33:54;102478.53;;;7.48;72.72
9110;BME280;4590;51.462;6.692;2022-12-01T11:36:28;102467.81;;;7.46;72.34
9110;BME280;4590;51.462;6.692;2022-12-01T11:38:59;102476.16;;;7.51;72.53
9110;BME280;4590;51.462;6.692;2022-12-01T11:41:38;102468.19;;;7.50;72.63
9110;BME280;4590;51.462;6.692;2022-12-01T11:44:06;102472.47;;;7.46;72.42
9110;BME280;4590;51.462;6.692;2022-12-01T11:46:40;102471.16;;;7.48;72.55
9110;BME280;4590;51.462;6.692;2022-12-01T11:49:15;102473.78;;;7.43;71.92
9110;BME280;4590;51.462;6.692;2022-12-01T11:51:41;102481.03;;;7.49;72.63
9110;BME280;4590;51.462;6.692;2022-12-01T11:56:39;102468.66;;;7.47;72.00
9110;BME280;4590;51.462;6.692;2022-12-01T11:59:10;102478.66;;;7.41;72.26
9110;BME280;4590;51.462;6.692;2022-12-01T12:18:27;102465.13;;;7.34;72.21
9110;BME280;4590;51.462;6.692;2022-12-01T12:26:29;102462.09;;;7.48;72.06
9110;BME280;4590;51.462;6.692;2022-12-01T12:32:05;102456.63;;;7.48;71.94
9110;BME280;4590;51.462;6.692;2022-12-01T12:40:22;102451.78;;;7.38;71.65
9110;BME280;4590;51.462;6.692;2022-12-01T12:45:42;102442.34;;;7.46;71.98
9110;BME280;4590;51.462;6.692;2022-12-01T12:48:21;102439.94;;;7.49;71.87
9110;BME280;4590;51.462;6.692;2022-12-01T12:50:56;102440.19;;;7.48;71.76
9110;BME280;4590;51.462;6.692;2022-12-01T12:53:33;102437.69;;;7.46;71.73
9110;BME280;4590;51.462;6.692;2022-12-01T12:56:04;102434.81;;;7.53;71.82
9110;BME280;4590;51.462;6.692;2022-12-01T12:58:38;102432.91;;;7.53;71.63
9110;BME280;4590;51.462;6.692;2022-12-01T13:01:11;102426.97;;;7.45;72.32
9110;BME280;4590;51.462;6.692;2022-12-01T13:03:56;102436.97;;;7.51;71.35
9110;BME280;4590;51.462;6.692;2022-12-01T13:08:57;102429.28;;;7.64;71.42
9110;BME280;4590;51.462;6.692;2022-12-01T13:11:28;102431.44;;;7.62;71.54
9110;BME280;4590;51.462;6.692;2022-12-01T13:13:56;102429.16;;;7.71;71.03
9110;BME280;4590;51.462;6.692;2022-12-01T13:16:34;102429.16;;;7.71;70.73
9110;BME280;4590;51.462;6.692;2022-12-01T13:19:06;102434.88;;;7.69;70.72
9110;BME280;4590;51.462;6.692;2022-12-01T13:21:40;102420.16;;;7.75;70.20
9110;BME280;4590;51.462;6.692;2022-12-01T13:24:09;102418.97;;;7.71;70.39
9110;BME280;4590;51.462;6.692;2022-12-01T13:26:36;102423.28;;;7.51;70.91
9110;BME280;4590;51.462;6.692;2022-12-01T13:29:05;102414.34;;;7.72;70.75
9110;BME280;4590;51.462;6.692;2022-12-01T13:31:49;102414.16;;;7.62;69.58
9110;BME280;4590;51.462;6.692;2022-12-01T13:34:25;102410.03;;;7.76;69.68
9110;BME280;4590;51.462;6.692;2022-12-01T13:36:53;102407.06;;;7.78;70.40
9110;BME280;4590;51.462;6.692;2022-12-01T13:39:30;102405.38;;;7.77;69.78
9110;BME280;4590;51.462;6.692;2022-12-01T13:44:43;102404.31;;;7.78;69.74
9110;BME280;4590;51.462;6.692;2022-12-01T13:49:45;102408.22;;;7.82;69.80
9110;BME280;4590;51.462;6.692;2022-12-01T14:02:26;102409.06;;;7.82;68.86
9110;BME280;4590;51.462;6.692;2022-12-01T14:04:52;102411.63;;;7.89;69.07
9110;BME280;4590;51.462;6.692;2022-12-01T14:07:27;102405.66;;;7.92;69.06
9110;BME280;4590;51.462;6.692;2022-12-01T14:10:05;102408.00;;;8.00;69.06
9110;BME280;4590;51.462;6.692;2022-12-01T14:12:31;102400.91;;;8.04;69.47
9110;BME280;4590;51.462;6.692;2022-12-01T14:15:18;102404.00;;;8.07;68.98
9110;BME280;4590;51.462;6.692;2022-12-01T14:17:45;102400.19;;;8.08;69.10
9110;BME280;4590;51.462;6.692;2022-12-01T14:22:42;102402.19;;;8.13;69.06
9110;BME280;4590;51.462;6.692;2022-12-01T14:27:48;102405.81;;;8.19;69.11
9110;BME280;4590;51.462;6.692;2022-12-01T14:38:34;102399.78;;;8.17;68.76
9110;BME280;4590;51.462;6.692;2022-12-01T14:41:06;102402.19;;;8.13;68.33
9110;BME280;4590;51.462;6.692;2022-12-01T14:43:34;102412.66;;;7.99;68.49
9110;BME280;4590;51.462;6.692;2022-12-01T14:46:22;102410.22;;;8.03;68.37
9110;BME280;4590;51.462;6.692;2022-12-01T14:48:49;102402.41;;;7.95;68.29
9110;BME280;4590;51.462;6.692;2022-12-01T14:51:29;102407.56;;;7.91;67.36
9110;BME280;4590;51.462;6.692;2022-12-01T14:54:01;102407.47;;;8.03;68.36
9110;BME280;4590;51.462;6.692;2022-12-01T14:56:27;102408.06;;;8.05;68.21
9110;BME280;4590;51.462;6.692;2022-12-01T14:58:59;102412.47;;;8.06;68.74
9110;BME280;4590;51.462;6.692;2022-12-01T15:01:33;102411.38;;;8.07;68.12
9110;BME280;4590;51.462;6.692;2022-12-01T15:04:01;102409.72;;;8.06;67.89
9110;BME280;4590;51.462;6.692;2022-12-01T15:06:29;102415.69;;;8.03;68.02
9110;BME280;4590;51.462;6.692;2022-12-01T15:09:09;102397.88;;;8.00;67.43
9110;BME280;4590;51.462;6.692;2022-12-01T15:11:36;102399.00;;;8.04;67.58
9110;BME280;4590;51.462;6.692;2022-12-01T15:14:20;102398.84;;;7.94;66.93
9110;BME280;4590;51.462;6.692;2022-12-01T15:16:45;102399.94;;;7.93;67.58
9110;BME280;4590;51.462;6.692;2022-12-01T15:19:31;102404.78;;;7.74;66.19